This is the latest recevied weather packets stored in our database for station/object WB9ZLM. If no packets are shown the sender has not sent any weather packets the latest 10 day(s).
| Time | Temp. | Humidity | Pressure | Rain* | Wind** | Luminosity | Snow |
|---|---|---|---|---|---|---|---|
| 1777565821 | 13.33° C | 43% | 1019.2 hPa | 0 mm | - | - | - |
| 1777565760 | 13.33° C | 43% | 1019.2 hPa | 0 mm | - | - | - |
| 1777564921 | 13.33° C | 41% | 1019.3 hPa | 0 mm | - | - | - |
| 1777564860 | 13.33° C | 41% | 1019.3 hPa | 0 mm | - | - | - |
| 1777564022 | 12.22° C | 45% | 1019.5 hPa | 0 mm | - | - | - |
| 1777563960 | 12.22° C | 45% | 1019.5 hPa | 0 mm | - | - | - |
| 1777563121 | 12.22° C | 44% | 1019.5 hPa | 0 mm | - | - | - |
| 1777563060 | 12.22° C | 44% | 1019.5 hPa | 0 mm | - | - | - |
| 1777562221 | 11.67° C | 49% | 1019.6 hPa | 0 mm | - | - | - |
| 1777562160 | 11.67° C | 49% | 1019.6 hPa | 0 mm | - | - | - |
| 1777561321 | 11.11° C | 48% | 1019.7 hPa | 0 mm | - | - | - |
| 1777561261 | 11.11° C | 48% | 1019.7 hPa | 0 mm | - | - | - |
| 1777560421 | 10.56° C | 50% | 1019.6 hPa | 0 mm | - | - | - |
| 1777560360 | 10.56° C | 50% | 1019.6 hPa | 0 mm | - | - | - |
| 1777559521 | 9.44° C | 51% | 1019.7 hPa | 0 mm | - | - | - |
| 1777559461 | 9.44° C | 51% | 1019.7 hPa | 0 mm | - | - | - |
| 1777558621 | 9.44° C | 52% | 1019.9 hPa | 0 mm | - | - | - |
| 1777558560 | 9.44° C | 52% | 1019.9 hPa | 0 mm | - | - | - |
| 1777557722 | 8.89° C | 52% | 1020.1 hPa | 0 mm | - | - | - |
| 1777557660 | 8.89° C | 52% | 1020.1 hPa | 0 mm | - | - | - |
| 1777556822 | 8.89° C | 54% | 1020.1 hPa | 0 mm | - | - | - |
| 1777556760 | 8.89° C | 54% | 1020.1 hPa | 0 mm | - | - | - |
| 1777555922 | 8.33° C | 58% | 1020.1 hPa | 0 mm | - | - | - |
| 1777555860 | 8.33° C | 58% | 1020.1 hPa | 0 mm | - | - | - |
| 1777555022 | 7.78° C | 61% | 1020.1 hPa | 0 mm | - | - | - |
* Rain latest hour (hover to see other rain measurements)
** Current wind speed in m/s (hover to see current wind gust speed)